Accueil
METAR-TAF:

METAR-TAF

Aéroports :

Crystal River, Floride, États-Unis

latitude: 28-52-02N, longitude: 082-34-17W, altitude: 3 m

Observation

Le bulletin a été fait il y a 12 minutes, à 08:15 UTC
Vent 3 kt de sud-est
Température 21°C
Humidité 100%
Pression 1018 hPa
Visibilité: 11.3 km
Ciel clair

METAR: KCGC 290815Z AUTO 13003KT 7SM CLR 21/21 A3006 RMK AO2

Heure: 04:27 (08:27 UTC)


TAF: absent

Observations et prévisions météorologiques de plus de 4000 aéroports (messages METAR et TAF).

Les stations disponibles sont représentées par des disques jaunes et rouges sur la carte.

Passer la souris dessus pour voir le nom de la station.

Cliquer dessus pour voir les observations et prévisions météorologiques.

Pour changer de carte: cliquez sur les boutons verts avec une croix noire pour zoomer, sur le bouton vert avec un tiret pour effectuer un zoom arrière, ou sur les flèches vertes pour les cartes adjacentes.


METAR-TAF: